Time;durP1;ratioP1;P1;durP2;ratioP2;P2;SDS_P1;SDS_P2;PMS_P1;PMS_P2;Temp;Humidity;BMP_temperature;BMP_pressure;BME280_temperature;BME280_humidity;BME280_pressure;Samples;Min_cycle;Max_cycle;Signal;HPM_P1;HPM_P2
2022/02/13 00:00:58;;;;;;;13.95;3.45;;;23.50;99.90;;;;;;5013131;28;20517;-65
2022/02/13 00:03:27;;;;;;;11.70;1.92;;;23.30;99.90;;;;;;5015360;28;20028;-65
2022/02/13 00:05:55;;;;;;;33.67;11.85;;;22.70;99.90;;;;;;5015246;28;20030;-65
2022/02/13 00:08:22;;;;;;;30.90;9.07;;;22.60;99.90;;;;;;5012559;28;20038;-65
2022/02/13 00:10:50;;;;;;;26.08;9.00;;;22.40;99.90;;;;;;5006475;28;20062;-65
2022/02/13 00:13:17;;;;;;;7.85;1.30;;;22.70;99.90;;;;;;5014674;28;20474;-65
2022/02/13 00:15:44;;;;;;;13.80;2.13;;;23.20;99.90;;;;;;5008670;28;20085;-66
2022/02/13 00:18:11;;;;;;;11.27;3.20;;;23.50;99.90;;;;;;5010924;28;20042;-66
2022/02/13 00:20:39;;;;;;;10.05;1.20;;;23.50;99.90;;;;;;5013635;28;20042;-66
2022/02/13 00:23:08;;;;;;;7.63;1.45;;;23.70;99.90;;;;;;5011541;28;20124;-66
2022/02/13 00:25:36;;;;;;;8.57;1.10;;;23.80;99.90;;;;;;5012616;28;20056;-65
2022/02/13 00:28:08;;;;;;;6.15;1.17;;;23.90;99.90;;;;;;5008408;28;21269;-65
2022/02/13 00:30:35;;;;;;;7.28;1.00;;;24.00;99.90;;;;;;5008944;28;20072;-65
2022/02/13 00:33:02;;;;;;;8.95;1.17;;;24.10;99.90;;;;;;5003479;28;20038;-66
2022/02/13 00:35:30;;;;;;;5.15;0.95;;;24.10;99.90;;;;;;5009804;28;20390;-66
2022/02/13 00:37:57;;;;;;;5.85;0.80;;;23.70;99.90;;;;;;5011934;28;20084;-66
2022/02/13 00:40:24;;;;;;;6.70;0.80;;;23.60;99.90;;;;;;5011230;28;20025;-66
2022/02/13 00:42:51;;;;;;;5.03;1.15;;;23.80;99.90;;;;;;5008771;28;20022;-66
2022/02/13 00:45:19;;;;;;;8.35;0.82;;;23.90;99.90;;;;;;5011498;28;20025;-66
2022/02/13 00:47:46;;;;;;;9.30;1.23;;;24.10;99.90;;;;;;5007904;28;20022;-66
2022/02/13 00:50:13;;;;;;;4.90;0.90;;;24.10;99.90;;;;;;5007926;28;20030;-67
2022/02/13 00:52:40;;;;;;;6.45;1.23;;;24.10;99.90;;;;;;5005528;28;20037;-67
2022/02/13 00:55:08;;;;;;;6.45;0.75;;;24.00;99.90;;;;;;5006885;28;20435;-67
2022/02/13 00:57:35;;;;;;;9.50;1.10;;;24.00;99.90;;;;;;5006470;28;20038;-66
2022/02/13 01:00:05;;;;;;;7.55;1.00;;;23.80;99.90;;;;;;5007435;28;20030;-67
2022/02/13 01:02:32;;;;;;;8.68;1.48;;;24.10;99.90;;;;;;5025110;28;20425;-67
2022/02/13 01:04:59;;;;;;;13.63;1.40;;;24.60;99.90;;;;;;5012618;28;20022;-66
2022/02/13 01:07:27;;;;;;;7.75;1.13;;;25.00;99.90;;;;;;5007679;28;20037;-67
2022/02/13 01:09:54;;;;;;;6.03;1.08;;;25.10;99.90;;;;;;5005149;28;20022;-67
2022/02/13 01:12:21;;;;;;;4.95;0.77;;;25.00;99.90;;;;;;5006025;28;20504;-66
2022/02/13 01:14:48;;;;;;;10.48;1.30;;;25.20;99.90;;;;;;5029301;28;20088;-65
2022/02/13 01:17:16;;;;;;;5.03;0.98;;;25.10;99.90;;;;;;5005773;28;20442;-67
2022/02/13 01:19:43;;;;;;;9.30;1.25;;;24.90;99.90;;;;;;5006876;28;20032;-67
2022/02/13 01:22:10;;;;;;;7.82;1.17;;;24.80;99.90;;;;;;5007579;28;20030;-67
2022/02/13 01:24:38;;;;;;;6.03;0.98;;;24.60;99.90;;;;;;5006037;28;20042;-67
2022/02/13 01:27:05;;;;;;;7.57;1.23;;;24.70;99.90;;;;;;5002699;28;21016;-67
2022/02/13 01:29:34;;;;;;;6.95;0.75;;;24.80;99.90;;;;;;5000224;28;20034;-67
2022/02/13 01:32:01;;;;;;;7.75;1.52;;;25.00;99.90;;;;;;5006303;28;20112;-66
2022/02/13 01:34:28;;;;;;;6.90;1.08;;;25.00;99.90;;;;;;5010265;28;20089;-67
2022/02/13 01:36:56;;;;;;;8.57;1.20;;;25.00;99.90;;;;;;5007021;28;20556;-66
2022/02/13 01:39:23;;;;;;;5.18;0.88;;;25.30;99.90;;;;;;5010574;28;20492;-66
2022/02/13 01:41:51;;;;;;;7.43;1.00;;;25.20;99.90;;;;;;5026782;28;20545;-66
2022/02/13 01:44:29;;;;;;;14.02;1.40;;;25.30;99.90;;;;;;5006937;28;20101;-67
2022/02/13 01:46:58;;;;;;;10.18;1.48;;;25.00;99.90;;;;;;5013223;28;20026;-66
2022/02/13 01:49:26;;;;;;;9.27;1.10;;;24.90;99.90;;;;;;5010622;28;20180;-66
2022/02/13 01:51:57;;;;;;;8.07;1.17;;;25.00;99.90;;;;;;5014242;28;20053;-66
2022/02/13 01:54:24;;;;;;;6.57;1.13;;;25.10;99.90;;;;;;5002678;28;20030;-67
2022/02/13 01:56:55;;;;;;;6.20;0.70;;;25.20;99.90;;;;;;5012521;28;20049;-66
2022/02/13 01:59:23;;;;;;;7.78;1.00;;;25.20;99.90;;;;;;5002314;28;20478;-66
2022/02/13 02:01:51;;;;;;;10.77;1.42;;;25.00;99.90;;;;;;5000430;28;20030;-66
2022/02/13 02:04:18;;;;;;;6.57;1.25;;;25.00;99.90;;;;;;5000848;28;20112;-66
2022/02/13 02:06:45;;;;;;;8.75;1.30;;;25.10;99.90;;;;;;5009609;28;20025;-66
2022/02/13 02:09:12;;;;;;;8.68;0.80;;;25.20;99.90;;;;;;5007433;28;20018;-66
2022/02/13 02:11:40;;;;;;;11.00;1.25;;;25.00;99.90;;;;;;5005840;28;20513;-67
2022/02/13 02:14:10;;;;;;;8.77;1.50;;;25.00;99.90;;;;;;5023041;28;20113;-66
2022/02/13 02:16:37;;;;;;;8.45;1.10;;;25.00;99.90;;;;;;5012002;28;20018;-66
2022/02/13 02:19:08;;;;;;;9.60;1.17;;;25.10;99.90;;;;;;5010681;28;20034;-66
2022/02/13 02:21:36;;;;;;;6.53;1.30;;;25.30;99.90;;;;;;5031266;28;20014;-66
2022/02/13 02:24:04;;;;;;;13.25;2.08;;;25.20;99.90;;;;;;5018049;28;20034;-66
2022/02/13 02:26:31;;;;;;;6.25;0.95;;;25.30;99.90;;;;;;5012979;28;20068;-66
2022/02/13 02:28:58;;;;;;;6.68;1.45;;;25.00;99.90;;;;;;5012105;28;20038;-66
2022/02/13 02:31:26;;;;;;;9.98;1.40;;;25.00;99.90;;;;;;5012793;28;20084;-66
2022/02/13 02:33:53;;;;;;;6.95;1.35;;;25.10;99.90;;;;;;5011722;28;20033;-66
2022/02/13 02:36:20;;;;;;;7.13;1.20;;;24.80;99.90;;;;;;5011540;28;20029;-66
2022/02/13 02:38:48;;;;;;;12.40;1.00;;;25.00;99.90;;;;;;5011199;28;20030;-66
2022/02/13 02:41:16;;;;;;;7.97;1.00;;;25.10;99.90;;;;;;5012550;28;20071;-66
2022/02/13 02:43:44;;;;;;;7.25;1.38;;;25.00;99.90;;;;;;5012273;28;20026;-67
2022/02/13 02:46:12;;;;;;;10.93;1.00;;;25.10;99.90;;;;;;5012053;28;20084;-66
2022/02/13 02:48:40;;;;;;;12.02;2.20;;;25.00;99.90;;;;;;5011792;28;20538;-67
2022/02/13 02:51:07;;;;;;;6.57;1.02;;;24.90;99.90;;;;;;5012946;28;20104;-67
2022/02/13 02:53:35;;;;;;;9.18;0.98;;;24.80;99.90;;;;;;5008759;28;20486;-66
2022/02/13 02:56:03;;;;;;;11.85;1.40;;;24.70;99.90;;;;;;5012638;28;20112;-66
2022/02/13 02:58:31;;;;;;;7.00;1.00;;;24.80;99.90;;;;;;5012177;28;20039;-66
2022/02/13 03:00:58;;;;;;;7.63;1.55;;;24.90;99.90;;;;;;5012885;28;20077;-67
2022/02/13 03:03:25;;;;;;;15.70;1.55;;;25.10;99.90;;;;;;5012061;28;20030;-66
2022/02/13 03:05:53;;;;;;;11.48;1.55;;;25.10;99.90;;;;;;5011655;28;20105;-67
2022/02/13 03:08:21;;;;;;;9.15;1.70;;;25.00;99.90;;;;;;5011889;28;20120;-66
2022/02/13 03:10:49;;;;;;;4.93;0.90;;;25.20;99.90;;;;;;5012612;28;20170;-66
2022/02/13 03:13:20;;;;;;;7.20;1.00;;;25.40;99.90;;;;;;5010883;28;20062;-66
2022/02/13 03:15:48;;;;;;;10.02;1.10;;;25.40;99.90;;;;;;5031353;28;20060;-66
2022/02/13 03:18:19;;;;;;;10.45;1.55;;;25.30;99.90;;;;;;5023950;28;20057;-66
2022/02/13 03:20:52;;;;;;;9.45;2.08;;;25.10;99.90;;;;;;4994722;28;20022;-66
2022/02/13 03:23:19;;;;;;;7.88;1.25;;;25.30;99.90;;;;;;5004322;28;20030;-66
2022/02/13 03:25:47;;;;;;;5.70;1.40;;;25.30;99.90;;;;;;5011178;28;20033;-66
2022/02/13 03:28:15;;;;;;;7.45;1.00;;;25.20;99.90;;;;;;5012059;28;20037;-66
2022/02/13 03:30:42;;;;;;;13.55;1.98;;;24.90;99.90;;;;;;5011809;28;20038;-66
2022/02/13 03:33:10;;;;;;;7.60;1.05;;;24.80;99.90;;;;;;5014951;28;20060;-66
2022/02/13 03:35:37;;;;;;;9.80;1.33;;;24.70;99.90;;;;;;5016148;28;20032;-66
2022/02/13 03:38:06;;;;;;;15.32;1.98;;;24.70;99.90;;;;;;5015203;28;20458;-66
2022/02/13 03:40:34;;;;;;;10.02;1.77;;;24.60;99.90;;;;;;5015218;28;20030;-66
2022/02/13 03:43:05;;;;;;;11.13;1.67;;;24.50;99.90;;;;;;5015266;28;20092;-66
2022/02/13 03:45:33;;;;;;;8.52;1.23;;;24.60;99.90;;;;;;5015919;28;20030;-66
2022/02/13 03:48:00;;;;;;;8.88;1.60;;;24.50;99.90;;;;;;5012403;28;20064;-67
2022/02/13 03:50:28;;;;;;;6.18;1.00;;;24.50;99.90;;;;;;5015899;28;20099;-67
2022/02/13 03:52:55;;;;;;;6.65;1.50;;;24.50;99.90;;;;;;5015375;28;20022;-66
2022/02/13 03:55:23;;;;;;;5.45;1.08;;;24.50;99.90;;;;;;5015548;28;20105;-66
2022/02/13 03:57:51;;;;;;;6.93;1.40;;;24.80;99.90;;;;;;5014977;28;20053;-66
2022/02/13 04:00:18;;;;;;;9.00;0.90;;;24.40;99.90;;;;;;5012458;28;20080;-66
2022/02/13 04:02:46;;;;;;;6.80;1.23;;;24.30;99.90;;;;;;5006333;28;20026;-67
2022/02/13 04:05:13;;;;;;;10.02;1.38;;;24.20;99.90;;;;;;5014084;28;20029;-67
2022/02/13 04:07:44;;;;;;;5.35;1.02;;;24.40;99.90;;;;;;5021408;28;20034;-66
2022/02/13 04:10:13;;;;;;;4.00;0.65;;;24.30;99.90;;;;;;5029038;28;20045;-66
2022/02/13 04:12:41;;;;;;;4.10;0.50;;;24.30;99.90;;;;;;5020180;28;20054;-66
2022/02/13 04:15:11;;;;;;;4.55;0.60;;;24.20;99.90;;;;;;5014505;28;20612;-68
2022/02/13 04:17:38;;;;;;;6.35;1.10;;;24.30;99.90;;;;;;4995485;28;20069;-68
2022/02/13 04:20:07;;;;;;;6.25;1.13;;;24.20;99.90;;;;;;5019025;28;20030;-67
2022/02/13 04:22:34;;;;;;;9.32;1.17;;;24.20;99.90;;;;;;5016092;28;20470;-68
2022/02/13 04:25:01;;;;;;;9.65;1.42;;;24.30;99.90;;;;;;5014875;28;20026;-67
2022/02/13 04:27:29;;;;;;;9.90;1.45;;;24.10;99.90;;;;;;5010715;28;20018;-67
2022/02/13 04:29:56;;;;;;;7.50;1.38;;;24.10;99.90;;;;;;5031432;28;20029;-67
2022/02/13 04:32:23;;;;;;;11.80;1.30;;;24.20;99.90;;;;;;5013787;28;20133;-67
2022/02/13 04:34:50;;;;;;;7.85;1.70;;;24.20;99.90;;;;;;5018015;28;20030;-68
2022/02/13 04:37:18;;;;;;;10.25;2.00;;;24.10;99.90;;;;;;5018949;28;20086;-68
2022/02/13 04:39:45;;;;;;;9.63;1.67;;;24.00;99.90;;;;;;5014222;28;20112;-67
2022/02/13 04:42:13;;;;;;;9.75;1.67;;;24.00;99.90;;;;;;5020338;28;20497;-67
2022/02/13 04:44:41;;;;;;;6.85;1.25;;;23.90;99.90;;;;;;5004192;28;20041;-67
2022/02/13 04:47:10;;;;;;;6.80;1.20;;;24.00;99.90;;;;;;4999501;28;20022;-67
2022/02/13 04:49:37;;;;;;;9.80;1.33;;;24.20;99.90;;;;;;5023112;28;20026;-67
2022/02/13 04:52:05;;;;;;;8.10;1.50;;;24.10;99.90;;;;;;5022984;28;20022;-67
2022/02/13 04:54:32;;;;;;;10.43;1.73;;;24.10;99.90;;;;;;5010094;28;20097;-66
2022/02/13 04:57:01;;;;;;;9.68;1.20;;;24.10;99.90;;;;;;5027562;28;20501;-66
2022/02/13 04:59:33;;;;;;;10.63;1.58;;;24.20;99.90;;;;;;5011068;28;20029;-66
2022/02/13 05:02:02;;;;;;;8.32;1.38;;;24.20;99.90;;;;;;5006085;28;20100;-66
2022/02/13 05:04:30;;;;;;;8.02;1.38;;;24.20;99.90;;;;;;5013542;28;20029;-66
2022/02/13 05:06:57;;;;;;;8.10;1.33;;;24.10;99.90;;;;;;5010177;28;20112;-66
2022/02/13 05:09:25;;;;;;;9.77;1.40;;;24.30;99.90;;;;;;5013215;28;20057;-67
2022/02/13 05:11:53;;;;;;;10.55;1.88;;;24.20;99.90;;;;;;5011941;28;20025;-66
2022/02/13 05:14:24;;;;;;;9.73;1.63;;;24.20;99.90;;;;;;5012599;28;20039;-66
2022/02/13 05:16:52;;;;;;;7.53;1.23;;;24.20;99.90;;;;;;5012076;28;20034;-67
2022/02/13 05:19:19;;;;;;;8.05;0.88;;;24.20;99.90;;;;;;5015640;28;20026;-67
2022/02/13 05:21:56;;;;;;;9.23;0.98;;;24.30;99.90;;;;;;5020952;28;20022;-67
2022/02/13 05:24:26;;;;;;;4.38;0.80;;;24.30;99.90;;;;;;5015291;28;20034;-66
2022/02/13 05:26:54;;;;;;;9.68;1.20;;;24.20;99.90;;;;;;5017700;28;20579;-67
2022/02/13 05:29:22;;;;;;;9.93;1.60;;;24.30;99.90;;;;;;5010513;28;20121;-66
2022/02/13 05:31:50;;;;;;;8.55;1.23;;;24.10;99.90;;;;;;5012450;28;20026;-67
2022/02/13 05:34:17;;;;;;;11.27;1.88;;;23.70;99.90;;;;;;5027318;28;20567;-67
2022/02/13 05:36:45;;;;;;;10.18;1.95;;;23.70;99.90;;;;;;5011635;28;20033;-67
2022/02/13 05:39:13;;;;;;;8.45;1.27;;;23.60;99.90;;;;;;5009893;28;20037;-67
2022/02/13 05:41:40;;;;;;;11.63;2.42;;;23.60;99.90;;;;;;4998587;28;20482;-67
2022/02/13 05:44:08;;;;;;;7.95;1.73;;;23.60;99.90;;;;;;5015190;28;20101;-66
2022/02/13 05:46:36;;;;;;;6.18;0.95;;;23.60;99.90;;;;;;5024032;28;20036;-66
2022/02/13 05:49:03;;;;;;;10.27;1.73;;;23.30;99.90;;;;;;5015787;28;20129;-66
2022/02/13 05:51:31;;;;;;;8.38;1.40;;;23.30;99.90;;;;;;5012734;28;20026;-66
2022/02/13 05:53:58;;;;;;;10.82;1.30;;;23.40;99.90;;;;;;5017139;28;20034;-65
2022/02/13 05:56:26;;;;;;;9.13;1.40;;;23.60;99.90;;;;;;5015925;28;20029;-65
2022/02/13 05:58:53;;;;;;;12.95;0.95;;;23.80;99.90;;;;;;5016976;28;20014;-65
2022/02/13 06:01:22;;;;;;;11.10;1.60;;;23.90;99.90;;;;;;5013608;28;20103;-65
2022/02/13 06:03:49;;;;;;;8.43;1.10;;;24.00;99.90;;;;;;5009210;28;20041;-66
2022/02/13 06:06:16;;;;;;;11.23;1.80;;;23.90;99.90;;;;;;5013274;28;20094;-65
2022/02/13 06:08:44;;;;;;;12.88;2.28;;;23.90;99.90;;;;;;5012977;28;20466;-65
2022/02/13 06:11:12;;;;;;;11.07;1.17;;;23.90;99.90;;;;;;5021340;28;20461;-66
2022/02/13 06:13:40;;;;;;;9.50;1.42;;;23.80;99.90;;;;;;5021114;28;20029;-66
2022/02/13 06:16:08;;;;;;;6.32;1.20;;;23.90;99.90;;;;;;5011608;28;20026;-67
2022/02/13 06:18:36;;;;;;;8.50;1.88;;;23.90;99.90;;;;;;5013611;28;20049;-66
2022/02/13 06:21:04;;;;;;;7.60;1.58;;;23.90;99.90;;;;;;5008071;28;20737;-67
2022/02/13 06:23:32;;;;;;;7.75;1.70;;;23.80;99.90;;;;;;5009653;28;20025;-67
2022/02/13 06:25:59;;;;;;;5.43;0.90;;;23.80;99.90;;;;;;5008378;28;20509;-67
2022/02/13 06:28:27;;;;;;;16.77;1.92;;;23.90;99.90;;;;;;5012277;28;20029;-67
2022/02/13 06:30:57;;;;;;;8.90;1.10;;;23.90;99.90;;;;;;5016547;28;20497;-66
2022/02/13 06:33:24;;;;;;;4.45;1.13;;;23.60;99.90;;;;;;5002383;28;20029;-67
2022/02/13 06:35:53;;;;;;;9.43;1.20;;;23.60;99.90;;;;;;5008141;28;20034;-67
2022/02/13 06:38:20;;;;;;;6.65;1.20;;;23.70;99.90;;;;;;5000586;28;20624;-68
2022/02/13 06:40:47;;;;;;;10.18;1.50;;;23.50;99.90;;;;;;5004219;28;20022;-67
2022/02/13 06:43:15;;;;;;;12.07;2.08;;;23.40;99.90;;;;;;5005489;28;20030;-67
2022/02/13 06:45:42;;;;;;;10.90;1.50;;;23.40;99.90;;;;;;5014951;28;20088;-66
2022/02/13 06:48:10;;;;;;;8.50;1.73;;;23.40;99.90;;;;;;5015240;28;20069;-67
2022/02/13 06:50:37;;;;;;;10.05;1.35;;;23.40;99.90;;;;;;5008583;28;20049;-67
2022/02/13 06:53:05;;;;;;;9.75;1.80;;;23.40;99.90;;;;;;5007852;28;20025;-67
2022/02/13 06:55:33;;;;;;;11.48;2.15;;;23.20;99.90;;;;;;5015092;28;20127;-68
2022/02/13 06:58:00;;;;;;;6.70;1.33;;;23.20;99.90;;;;;;5015694;28;20034;-67
2022/02/13 07:00:28;;;;;;;8.15;1.50;;;23.30;99.90;;;;;;5019282;28;20022;-67
2022/02/13 07:02:55;;;;;;;12.25;1.67;;;23.30;99.90;;;;;;5021259;28;20045;-67
2022/02/13 07:05:23;;;;;;;9.93;1.75;;;23.40;99.90;;;;;;5012757;28;20045;-66
2022/02/13 07:07:51;;;;;;;11.18;2.15;;;23.40;99.90;;;;;;5013949;28;20393;-67
2022/02/13 07:10:19;;;;;;;11.20;1.50;;;23.30;99.90;;;;;;5027852;28;20034;-66
2022/02/13 07:12:46;;;;;;;7.50;1.23;;;23.20;99.90;;;;;;5016099;28;20033;-66
2022/02/13 07:15:14;;;;;;;8.70;1.10;;;23.20;99.90;;;;;;5015038;28;20045;-66
2022/02/13 07:17:41;;;;;;;10.90;1.40;;;23.10;99.90;;;;;;5017452;28;20049;-66
2022/02/13 07:20:09;;;;;;;9.77;1.13;;;23.10;99.90;;;;;;5010129;28;20107;-66
2022/02/13 07:22:36;;;;;;;9.98;1.58;;;23.10;99.90;;;;;;5014894;28;20022;-66
2022/02/13 07:25:07;;;;;;;7.35;1.52;;;23.20;99.90;;;;;;5011109;28;20034;-66
2022/02/13 07:27:36;;;;;;;8.38;1.67;;;23.30;99.90;;;;;;5008139;28;20389;-66
2022/02/13 07:30:12;;;;;;;7.00;1.50;;;23.20;99.90;;;;;;5016114;28;20525;-65
2022/02/13 07:32:44;;;;;;;9.40;1.67;;;23.40;99.90;;;;;;5018474;28;20030;-66
2022/02/13 07:35:12;;;;;;;11.13;1.25;;;23.30;99.90;;;;;;5024830;28;20103;-66
2022/02/13 07:37:39;;;;;;;14.75;2.65;;;23.10;99.90;;;;;;5012834;28;20038;-66
2022/02/13 07:40:07;;;;;;;11.45;1.95;;;23.10;99.90;;;;;;5010551;28;20028;-66
2022/02/13 07:42:34;;;;;;;7.60;1.02;;;23.10;99.90;;;;;;5024334;28;20087;-66
2022/02/13 07:45:02;;;;;;;12.35;1.90;;;23.10;99.90;;;;;;5014503;28;20029;-66
2022/02/13 07:47:30;;;;;;;10.25;2.03;;;23.00;99.90;;;;;;5009341;28;20030;-66
2022/02/13 07:49:57;;;;;;;10.43;1.90;;;22.90;99.90;;;;;;5023390;28;20034;-66
2022/02/13 07:52:25;;;;;;;8.07;0.88;;;22.90;99.90;;;;;;5021664;28;20021;-66
2022/02/13 07:54:52;;;;;;;7.38;1.23;;;22.70;99.90;;;;;;5016142;28;20398;-66
2022/02/13 07:57:19;;;;;;;8.30;1.67;;;22.80;99.90;;;;;;5015689;28;20092;-66
2022/02/13 07:59:46;;;;;;;9.20;1.75;;;22.70;99.90;;;;;;5012451;28;20026;-66
2022/02/13 08:02:14;;;;;;;7.25;1.30;;;22.70;99.90;;;;;;5019651;28;20424;-66
2022/02/13 08:04:42;;;;;;;7.13;1.48;;;22.70;99.90;;;;;;5013626;28;20025;-66
2022/02/13 08:07:09;;;;;;;10.20;1.20;;;22.70;99.90;;;;;;5012871;28;20064;-66
2022/02/13 08:09:36;;;;;;;10.90;2.08;;;22.60;99.90;;;;;;5018087;28;20065;-67
2022/02/13 08:12:04;;;;;;;10.48;1.85;;;22.50;99.90;;;;;;4995686;28;20085;-66
2022/02/13 08:14:31;;;;;;;10.88;1.00;;;22.50;99.90;;;;;;5012184;28;20057;-67
2022/02/13 08:16:59;;;;;;;6.93;1.35;;;22.50;99.90;;;;;;5034067;28;20028;-66
2022/02/13 08:19:26;;;;;;;9.40;1.13;;;22.40;99.90;;;;;;5013410;28;20060;-67
2022/02/13 08:21:53;;;;;;;12.52;2.17;;;22.40;99.90;;;;;;5009414;28;20031;-66
2022/02/13 08:24:21;;;;;;;10.05;1.60;;;22.30;99.90;;;;;;5009966;28;20366;-66
2022/02/13 08:26:50;;;;;;;7.55;1.42;;;22.30;99.90;;;;;;5018568;28;20096;-66
2022/02/13 08:29:17;;;;;;;9.50;1.70;;;22.30;99.90;;;;;;5020623;28;20026;-66
2022/02/13 08:31:54;;;;;;;9.43;1.70;;;22.20;99.90;;;;;;5007576;28;20038;-67
2022/02/13 08:34:25;;;;;;;8.15;1.55;;;22.20;99.90;;;;;;5013399;28;20037;-66
2022/02/13 08:36:52;;;;;;;14.50;5.38;;;22.20;99.90;;;;;;5011500;28;20042;-63
2022/02/13 08:39:19;;;;;;;9.75;2.78;;;22.10;99.90;;;;;;5012571;28;20033;-64
2022/02/13 08:41:47;;;;;;;12.93;2.17;;;22.10;99.90;;;;;;5009330;28;20025;-64
2022/02/13 08:44:14;;;;;;;10.15;2.15;;;22.10;99.90;;;;;;5005442;28;20014;-64
2022/02/13 08:46:41;;;;;;;8.93;1.15;;;22.10;99.90;;;;;;5012764;28;20053;-64
2022/02/13 08:49:09;;;;;;;6.85;1.30;;;22.10;99.90;;;;;;5016290;28;20026;-64
2022/02/13 08:51:36;;;;;;;9.07;1.65;;;22.10;99.90;;;;;;5015931;28;20058;-64
2022/02/13 08:54:03;;;;;;;9.40;1.58;;;22.00;99.90;;;;;;5014435;28;20033;-64
2022/02/13 08:56:30;;;;;;;8.90;1.40;;;21.90;99.90;;;;;;5015401;28;20033;-64
2022/02/13 08:58:59;;;;;;;5.72;1.13;;;22.00;99.90;;;;;;5013573;28;20025;-64
2022/02/13 09:01:26;;;;;;;10.20;1.25;;;22.00;99.90;;;;;;5016095;28;20025;-64
2022/02/13 09:03:54;;;;;;;8.82;1.30;;;21.90;99.90;;;;;;5013452;28;20029;-64
2022/02/13 09:06:21;;;;;;;11.25;1.50;;;21.90;99.90;;;;;;5020571;28;20026;-64
2022/02/13 09:08:48;;;;;;;6.60;1.10;;;21.90;99.90;;;;;;5017124;28;20770;-64
2022/02/13 09:11:16;;;;;;;7.00;1.30;;;21.80;99.90;;;;;;5018105;28;20473;-64
2022/02/13 09:13:43;;;;;;;9.40;1.40;;;21.80;99.90;;;;;;5017032;28;20030;-63
2022/02/13 09:16:10;;;;;;;8.15;1.02;;;21.80;99.90;;;;;;5015195;28;20033;-64
2022/02/13 09:18:38;;;;;;;6.10;0.98;;;21.80;99.90;;;;;;5013149;28;20453;-64
2022/02/13 09:21:05;;;;;;;6.15;1.27;;;21.80;99.90;;;;;;5012584;28;20030;-64
2022/02/13 09:23:32;;;;;;;6.15;1.20;;;21.70;99.90;;;;;;5017304;28;20044;-64
2022/02/13 09:26:01;;;;;;;8.65;1.33;;;21.70;99.90;;;;;;5011620;28;20080;-64
2022/02/13 09:28:28;;;;;;;4.90;1.55;;;21.70;99.90;;;;;;5014572;28;20033;-64
2022/02/13 09:30:55;;;;;;;7.30;1.05;;;21.60;99.90;;;;;;5016452;28;20049;-63
2022/02/13 09:33:23;;;;;;;7.00;1.48;;;21.60;99.90;;;;;;5012195;28;20076;-63
2022/02/13 09:35:51;;;;;;;9.52;1.80;;;21.60;99.90;;;;;;5022692;28;20045;-64
2022/02/13 09:38:18;;;;;;;13.07;1.40;;;21.60;99.90;;;;;;5012132;28;20093;-63
2022/02/13 09:40:47;;;;;;;9.27;1.52;;;21.60;99.90;;;;;;5002739;28;20454;-63
2022/02/13 09:43:16;;;;;;;7.30;1.27;;;21.60;99.90;;;;;;5008527;28;20072;-64
2022/02/13 09:45:45;;;;;;;9.32;1.00;;;21.60;99.90;;;;;;5016798;28;20022;-64
2022/02/13 09:48:17;;;;;;;7.25;1.52;;;21.60;99.90;;;;;;5011736;28;20474;-64
2022/02/13 09:50:45;;;;;;;9.00;1.60;;;21.50;99.90;;;;;;5010542;28;20505;-63
2022/02/13 09:53:16;;;;;;;6.20;1.13;;;21.40;99.90;;;;;;5013067;28;20105;-64
2022/02/13 09:55:43;;;;;;;7.00;0.98;;;21.40;99.90;;;;;;5012411;28;20061;-63
2022/02/13 09:58:11;;;;;;;8.13;1.85;;;21.30;99.90;;;;;;5030155;28;20087;-63
2022/02/13 10:00:56;;;;;;;4.13;1.13;;;21.30;99.90;;;;;;5025961;28;20033;-63
2022/02/13 10:03:36;;;;;;;10.80;1.35;;;21.30;99.90;;;;;;5013322;28;20065;-63
2022/02/13 10:06:21;;;;;;;8.65;1.10;;;21.20;99.90;;;;;;5012200;28;20021;-63
2022/02/13 10:08:54;;;;;;;8.93;1.30;;;21.30;99.90;;;;;;4996076;28;20019;-64
2022/02/13 10:11:25;;;;;;;5.53;1.20;;;21.30;99.90;;;;;;5003185;28;20050;-63
2022/02/13 10:13:56;;;;;;;11.55;1.33;;;21.30;99.90;;;;;;5001487;28;20029;-64
2022/02/13 10:16:28;;;;;;;4.72;0.98;;;21.30;99.90;;;;;;4995096;28;20510;-63
2022/02/13 10:18:58;;;;;;;4.55;0.75;;;21.30;99.90;;;;;;4996216;28;20100;-63
2022/02/13 10:21:35;;;;;;;6.63;1.10;;;21.20;99.90;;;;;;5011578;28;20023;-64
2022/02/13 10:24:29;;;;;;;10.13;1.10;;;21.20;99.90;;;;;;5011713;28;20030;-63
2022/02/13 10:27:05;;;;;;;4.55;0.80;;;21.20;99.90;;;;;;5011939;28;20064;-64
2022/02/13 10:29:41;;;;;;;5.13;0.98;;;21.20;99.90;;;;;;5009075;28;20022;-63
2022/02/13 10:32:13;;;;;;;6.78;0.90;;;21.20;99.90;;;;;;5006333;28;20033;-64
2022/02/13 10:35:07;;;;;;;8.15;1.00;;;21.20;99.90;;;;;;5012695;28;20030;-63
2022/02/13 10:37:38;;;;;;;6.05;1.08;;;21.20;99.90;;;;;;5007281;28;20034;-63
2022/02/13 10:40:07;;;;;;;9.07;1.45;;;21.20;99.90;;;;;;5010539;28;20044;-63
2022/02/13 10:42:35;;;;;;;7.38;1.17;;;21.10;99.90;;;;;;5007149;28;20104;-63
2022/02/13 10:45:22;;;;;;;9.88;1.15;;;21.20;99.90;;;;;;5008836;28;20037;-63
2022/02/13 10:47:52;;;;;;;8.95;1.25;;;21.10;99.90;;;;;;5005138;28;20017;-63
2022/02/13 10:50:20;;;;;;;7.78;0.98;;;21.00;99.90;;;;;;5007977;28;20030;-63
2022/02/13 10:52:53;;;;;;;7.18;1.40;;;21.00;99.90;;;;;;5008879;28;20022;-64
2022/02/13 10:55:21;;;;;;;10.55;1.42;;;21.00;99.90;;;;;;4999266;28;20057;-65
2022/02/13 10:57:48;;;;;;;4.18;1.00;;;21.00;99.90;;;;;;5006337;28;20061;-64
2022/02/13 11:00:17;;;;;;;7.80;1.77;;;20.90;99.90;;;;;;5001050;28;20030;-64
2022/02/13 11:02:48;;;;;;;7.65;1.45;;;20.90;99.90;;;;;;5015907;28;20029;-64
2022/02/13 11:05:19;;;;;;;10.40;1.92;;;20.90;99.90;;;;;;5022709;28;20037;-64
2022/02/13 11:07:50;;;;;;;6.57;1.58;;;20.90;99.90;;;;;;5020054;28;20025;-64
2022/02/13 11:10:34;;;;;;;6.53;1.05;;;20.90;99.90;;;;;;5017591;28;20025;-65
2022/02/13 11:13:01;;;;;;;7.72;1.48;;;20.90;99.90;;;;;;5029805;28;20033;-64
2022/02/13 11:15:31;;;;;;;7.03;1.45;;;20.90;99.90;;;;;;5010842;28;20538;-64
2022/02/13 11:18:09;;;;;;;6.97;0.95;;;20.90;99.90;;;;;;5017802;28;20092;-64
2022/02/13 11:20:37;;;;;;;7.93;1.58;;;20.80;99.90;;;;;;5020255;28;20087;-64
2022/02/13 11:23:23;;;;;;;11.38;1.52;;;20.80;99.90;;;;;;5024163;28;20038;-64
2022/02/13 11:26:02;;;;;;;8.82;1.55;;;20.80;99.90;;;;;;5032058;28;20026;-65
2022/02/13 11:28:49;;;;;;;6.05;1.23;;;20.70;99.90;;;;;;5015486;28;20386;-64
2022/02/13 11:31:50;;;;;;;4.25;0.70;;;20.70;99.90;;;;;;5009628;28;20034;-64
2022/02/13 11:34:29;;;;;;;6.05;1.10;;;20.70;99.90;;;;;;5005769;28;20026;-64
2022/02/13 11:37:08;;;;;;;5.60;0.90;;;20.70;99.90;;;;;;5004352;28;20125;-64
2022/02/13 11:39:48;;;;;;;8.07;1.40;;;20.60;99.90;;;;;;5007683;28;20661;-64
2022/02/13 11:42:21;;;;;;;10.15;1.40;;;20.50;99.90;;;;;;5013097;28;20173;-64
2022/02/13 11:44:51;;;;;;;7.35;1.00;;;20.60;99.90;;;;;;5001706;28;20483;-64
2022/02/13 11:47:38;;;;;;;3.85;0.68;;;20.60;99.90;;;;;;4997713;28;20060;-64
2022/02/13 11:52:35;;;;;;;4.07;1.23;;;20.50;99.90;;;;;;5002177;28;20026;-64
2022/02/13 11:55:05;;;;;;;10.52;1.42;;;20.50;99.90;;;;;;5012131;28;20034;-64
2022/02/13 11:57:33;;;;;;;7.45;1.23;;;20.50;99.90;;;;;;5017738;28;20026;-64
2022/02/13 12:00:03;;;;;;;11.60;2.08;;;20.40;99.90;;;;;;5005973;28;20027;-64
2022/02/13 12:02:44;;;;;;;8.30;1.88;;;20.40;99.90;;;;;;5013057;28;20053;-64
2022/02/13 12:05:12;;;;;;;4.03;1.00;;;20.40;99.90;;;;;;5012441;28;20030;-64
2022/02/13 12:07:39;;;;;;;9.57;1.58;;;20.40;99.90;;;;;;5002560;28;20038;-64
2022/02/13 12:10:11;;;;;;;7.30;1.50;;;20.40;99.90;;;;;;5014756;28;20033;-64
2022/02/13 12:12:41;;;;;;;5.10;0.88;;;20.30;99.90;;;;;;5005586;28;20057;-64
2022/02/13 12:15:09;;;;;;;11.18;1.55;;;20.40;99.90;;;;;;5013036;28;20045;-64
2022/02/13 12:17:36;;;;;;;5.03;0.90;;;20.40;99.90;;;;;;5013796;28;20056;-64
2022/02/13 12:20:17;;;;;;;8.82;0.95;;;20.30;99.90;;;;;;5014288;28;20030;-64
2022/02/13 12:22:44;;;;;;;11.20;1.15;;;20.30;99.90;;;;;;5002275;28;20046;-64
2022/02/13 12:25:12;;;;;;;14.48;1.60;;;20.30;99.90;;;;;;5013090;28;20030;-64
2022/02/13 12:27:41;;;;;;;12.30;1.42;;;20.30;99.90;;;;;;5008794;28;20033;-64
2022/02/13 12:30:09;;;;;;;6.18;0.57;;;20.40;99.90;;;;;;5011304;28;20038;-64
2022/02/13 12:32:39;;;;;;;9.10;1.50;;;20.40;99.90;;;;;;5002381;28;20034;-64
2022/02/13 12:35:09;;;;;;;6.88;1.38;;;20.30;99.90;;;;;;5012760;28;20065;-64
2022/02/13 12:37:44;;;;;;;5.50;1.27;;;20.30;99.90;;;;;;5012419;28;20030;-64
2022/02/13 12:40:16;;;;;;;10.57;1.58;;;20.30;99.90;;;;;;5013421;28;20113;-64
2022/02/13 12:42:52;;;;;;;12.02;1.98;;;20.30;99.90;;;;;;5008022;28;20025;-64
2022/02/13 12:45:22;;;;;;;10.60;0.93;;;20.30;99.90;;;;;;5013871;28;20087;-64
2022/02/13 12:47:54;;;;;;;8.73;1.10;;;20.30;99.90;;;;;;5010711;28;20026;-64
2022/02/13 12:50:24;;;;;;;9.40;1.10;;;20.30;99.90;;;;;;5004400;28;20088;-64
2022/02/13 12:52:52;;;;;;;6.15;1.15;;;20.30;99.90;;;;;;5006065;28;20018;-64
2022/02/13 12:55:22;;;;;;;10.30;2.13;;;20.20;99.90;;;;;;5012818;28;20176;-64